sensor_id;sensor_type;location;lat;lon;timestamp;P1;durP1;ratioP1;P2;durP2;ratioP2
27187;SDS011;14708;50.872;5.306;2023-09-07T00:01:23;2.50;;;2.30;;
27187;SDS011;14708;50.872;5.306;2023-09-07T00:03:48;3.45;;;2.40;;
27187;SDS011;14708;50.872;5.306;2023-09-07T00:06:14;2.47;;;2.10;;
27187;SDS011;14708;50.872;5.306;2023-09-07T00:08:40;2.83;;;2.50;;
27187;SDS011;14708;50.872;5.306;2023-09-07T00:11:06;2.75;;;2.17;;
27187;SDS011;14708;50.872;5.306;2023-09-07T00:13:32;3.80;;;2.55;;
27187;SDS011;14708;50.872;5.306;2023-09-07T00:16:02;4.47;;;2.25;;
27187;SDS011;14708;50.872;5.306;2023-09-07T00:18:29;2.85;;;2.55;;
27187;SDS011;14708;50.872;5.306;2023-09-07T00:20:55;3.00;;;2.53;;
27187;SDS011;14708;50.872;5.306;2023-09-07T00:23:21;2.75;;;2.03;;
27187;SDS011;14708;50.872;5.306;2023-09-07T00:25:47;5.20;;;2.25;;
27187;SDS011;14708;50.872;5.306;2023-09-07T00:28:13;2.88;;;2.33;;
27187;SDS011;14708;50.872;5.306;2023-09-07T00:30:39;3.30;;;2.83;;
27187;SDS011;14708;50.872;5.306;2023-09-07T00:33:05;4.03;;;2.75;;
27187;SDS011;14708;50.872;5.306;2023-09-07T00:35:31;2.70;;;2.30;;
27187;SDS011;14708;50.872;5.306;2023-09-07T00:37:57;2.40;;;2.03;;
27187;SDS011;14708;50.872;5.306;2023-09-07T00:40:23;2.80;;;2.47;;
27187;SDS011;14708;50.872;5.306;2023-09-07T00:42:48;2.78;;;2.50;;
27187;SDS011;14708;50.872;5.306;2023-09-07T00:45:15;3.67;;;2.75;;
27187;SDS011;14708;50.872;5.306;2023-09-07T00:47:40;2.63;;;2.40;;
27187;SDS011;14708;50.872;5.306;2023-09-07T00:50:06;2.25;;;2.05;;
27187;SDS011;14708;50.872;5.306;2023-09-07T00:52:33;2.75;;;2.28;;
27187;SDS011;14708;50.872;5.306;2023-09-07T00:54:59;2.78;;;2.30;;
27187;SDS011;14708;50.872;5.306;2023-09-07T00:57:26;3.45;;;2.25;;
27187;SDS011;14708;50.872;5.306;2023-09-07T00:59:52;2.22;;;2.03;;
27187;SDS011;14708;50.872;5.306;2023-09-07T01:02:17;2.40;;;1.90;;
27187;SDS011;14708;50.872;5.306;2023-09-07T01:04:43;3.33;;;2.30;;
27187;SDS011;14708;50.872;5.306;2023-09-07T01:07:14;2.67;;;2.20;;
27187;SDS011;14708;50.872;5.306;2023-09-07T01:09:42;2.97;;;2.33;;
27187;SDS011;14708;50.872;5.306;2023-09-07T01:12:13;3.60;;;2.75;;
27187;SDS011;14708;50.872;5.306;2023-09-07T01:14:40;3.33;;;2.30;;
27187;SDS011;14708;50.872;5.306;2023-09-07T01:17:05;3.47;;;2.35;;
27187;SDS011;14708;50.872;5.306;2023-09-07T01:19:32;3.03;;;2.58;;
27187;SDS011;14708;50.872;5.306;2023-09-07T01:21:58;2.60;;;2.40;;
27187;SDS011;14708;50.872;5.306;2023-09-07T01:24:25;3.15;;;2.53;;
27187;SDS011;14708;50.872;5.306;2023-09-07T01:26:54;2.90;;;2.60;;
27187;SDS011;14708;50.872;5.306;2023-09-07T01:29:22;2.72;;;2.40;;
27187;SDS011;14708;50.872;5.306;2023-09-07T01:31:48;3.17;;;2.30;;
27187;SDS011;14708;50.872;5.306;2023-09-07T01:34:13;2.50;;;2.28;;
27187;SDS011;14708;50.872;5.306;2023-09-07T01:36:40;2.47;;;2.17;;
27187;SDS011;14708;50.872;5.306;2023-09-07T01:39:06;2.22;;;2.03;;
27187;SDS011;14708;50.872;5.306;2023-09-07T01:41:34;2.53;;;2.28;;
27187;SDS011;14708;50.872;5.306;2023-09-07T01:44:00;2.72;;;2.15;;
27187;SDS011;14708;50.872;5.306;2023-09-07T01:46:26;2.92;;;2.40;;
27187;SDS011;14708;50.872;5.306;2023-09-07T01:48:51;2.78;;;2.22;;
27187;SDS011;14708;50.872;5.306;2023-09-07T01:51:17;3.05;;;2.38;;
27187;SDS011;14708;50.872;5.306;2023-09-07T01:53:42;2.33;;;2.13;;
27187;SDS011;14708;50.872;5.306;2023-09-07T01:56:09;2.65;;;2.45;;
27187;SDS011;14708;50.872;5.306;2023-09-07T01:58:34;3.50;;;2.42;;
27187;SDS011;14708;50.872;5.306;2023-09-07T02:01:01;2.90;;;2.33;;
27187;SDS011;14708;50.872;5.306;2023-09-07T02:03:27;3.45;;;2.38;;
27187;SDS011;14708;50.872;5.306;2023-09-07T02:05:53;3.15;;;2.10;;
27187;SDS011;14708;50.872;5.306;2023-09-07T02:08:19;2.50;;;2.30;;
27187;SDS011;14708;50.872;5.306;2023-09-07T02:10:45;3.35;;;2.47;;
27187;SDS011;14708;50.872;5.306;2023-09-07T02:13:10;2.00;;;1.70;;
27187;SDS011;14708;50.872;5.306;2023-09-07T02:15:37;2.75;;;2.33;;
27187;SDS011;14708;50.872;5.306;2023-09-07T02:18:04;2.97;;;2.20;;
27187;SDS011;14708;50.872;5.306;2023-09-07T02:20:31;3.22;;;2.67;;
27187;SDS011;14708;50.872;5.306;2023-09-07T02:22:59;3.00;;;2.67;;
27187;SDS011;14708;50.872;5.306;2023-09-07T02:25:26;3.30;;;2.47;;
27187;SDS011;14708;50.872;5.306;2023-09-07T02:27:52;2.30;;;2.10;;
27187;SDS011;14708;50.872;5.306;2023-09-07T02:30:18;2.53;;;2.20;;
27187;SDS011;14708;50.872;5.306;2023-09-07T02:32:44;2.65;;;2.28;;
27187;SDS011;14708;50.872;5.306;2023-09-07T02:35:09;2.92;;;1.92;;
27187;SDS011;14708;50.872;5.306;2023-09-07T02:37:36;3.15;;;2.70;;
27187;SDS011;14708;50.872;5.306;2023-09-07T02:40:02;2.45;;;2.20;;
27187;SDS011;14708;50.872;5.306;2023-09-07T02:42:32;2.63;;;2.42;;
27187;SDS011;14708;50.872;5.306;2023-09-07T02:44:58;3.10;;;2.55;;
27187;SDS011;14708;50.872;5.306;2023-09-07T02:47:23;3.40;;;2.58;;
27187;SDS011;14708;50.872;5.306;2023-09-07T02:49:49;2.47;;;2.00;;
27187;SDS011;14708;50.872;5.306;2023-09-07T02:52:15;2.78;;;2.20;;
27187;SDS011;14708;50.872;5.306;2023-09-07T02:54:41;3.38;;;2.50;;
27187;SDS011;14708;50.872;5.306;2023-09-07T02:57:07;3.67;;;2.72;;
27187;SDS011;14708;50.872;5.306;2023-09-07T02:59:32;2.63;;;2.42;;
27187;SDS011;14708;50.872;5.306;2023-09-07T03:01:58;3.47;;;2.60;;
27187;SDS011;14708;50.872;5.306;2023-09-07T03:04:23;2.60;;;2.30;;
27187;SDS011;14708;50.872;5.306;2023-09-07T03:06:49;2.42;;;2.22;;
27187;SDS011;14708;50.872;5.306;2023-09-07T03:09:15;2.25;;;2.05;;
27187;SDS011;14708;50.872;5.306;2023-09-07T03:11:40;2.78;;;2.40;;
27187;SDS011;14708;50.872;5.306;2023-09-07T03:14:06;3.30;;;2.58;;
27187;SDS011;14708;50.872;5.306;2023-09-07T03:16:32;2.53;;;2.13;;
27187;SDS011;14708;50.872;5.306;2023-09-07T03:18:57;2.33;;;2.13;;
27187;SDS011;14708;50.872;5.306;2023-09-07T03:21:23;3.40;;;2.65;;
27187;SDS011;14708;50.872;5.306;2023-09-07T03:23:54;2.55;;;2.20;;
27187;SDS011;14708;50.872;5.306;2023-09-07T03:26:21;2.13;;;1.95;;
27187;SDS011;14708;50.872;5.306;2023-09-07T03:28:46;2.58;;;2.33;;
27187;SDS011;14708;50.872;5.306;2023-09-07T03:31:12;2.70;;;2.40;;
27187;SDS011;14708;50.872;5.306;2023-09-07T03:33:37;3.13;;;2.20;;
27187;SDS011;14708;50.872;5.306;2023-09-07T03:36:03;2.97;;;2.40;;
27187;SDS011;14708;50.872;5.306;2023-09-07T03:38:29;2.63;;;2.40;;
27187;SDS011;14708;50.872;5.306;2023-09-07T03:40:55;2.45;;;2.25;;
27187;SDS011;14708;50.872;5.306;2023-09-07T03:43:21;2.47;;;2.28;;
27187;SDS011;14708;50.872;5.306;2023-09-07T03:45:46;2.63;;;2.40;;
27187;SDS011;14708;50.872;5.306;2023-09-07T03:48:12;2.78;;;2.55;;
27187;SDS011;14708;50.872;5.306;2023-09-07T03:50:37;3.78;;;2.38;;
27187;SDS011;14708;50.872;5.306;2023-09-07T03:53:03;2.47;;;2.28;;
27187;SDS011;14708;50.872;5.306;2023-09-07T03:55:29;3.13;;;2.65;;
27187;SDS011;14708;50.872;5.306;2023-09-07T03:57:54;2.85;;;2.30;;
27187;SDS011;14708;50.872;5.306;2023-09-07T04:00:20;2.30;;;2.10;;
27187;SDS011;14708;50.872;5.306;2023-09-07T04:02:46;2.10;;;1.90;;
27187;SDS011;14708;50.872;5.306;2023-09-07T04:05:11;2.80;;;2.03;;
27187;SDS011;14708;50.872;5.306;2023-09-07T04:07:37;3.03;;;2.70;;
27187;SDS011;14708;50.872;5.306;2023-09-07T04:10:03;2.50;;;2.30;;
27187;SDS011;14708;50.872;5.306;2023-09-07T04:12:30;2.65;;;2.45;;
27187;SDS011;14708;50.872;5.306;2023-09-07T04:14:56;2.85;;;2.53;;
27187;SDS011;14708;50.872;5.306;2023-09-07T04:17:22;2.50;;;2.30;;
27187;SDS011;14708;50.872;5.306;2023-09-07T04:19:47;2.92;;;2.60;;
27187;SDS011;14708;50.872;5.306;2023-09-07T04:22:13;2.50;;;2.30;;
27187;SDS011;14708;50.872;5.306;2023-09-07T04:24:39;2.20;;;2.00;;
27187;SDS011;14708;50.872;5.306;2023-09-07T04:27:04;2.33;;;2.13;;
27187;SDS011;14708;50.872;5.306;2023-09-07T04:29:30;2.80;;;2.45;;
27187;SDS011;14708;50.872;5.306;2023-09-07T04:31:56;2.60;;;2.35;;
27187;SDS011;14708;50.872;5.306;2023-09-07T04:34:22;2.80;;;2.33;;
27187;SDS011;14708;50.872;5.306;2023-09-07T04:36:48;2.30;;;2.00;;
27187;SDS011;14708;50.872;5.306;2023-09-07T04:39:14;2.55;;;2.15;;
27187;SDS011;14708;50.872;5.306;2023-09-07T04:41:40;2.58;;;2.38;;
27187;SDS011;14708;50.872;5.306;2023-09-07T04:44:06;2.67;;;2.47;;
27187;SDS011;14708;50.872;5.306;2023-09-07T04:46:32;3.38;;;2.65;;
27187;SDS011;14708;50.872;5.306;2023-09-07T04:48:57;2.78;;;2.25;;
27187;SDS011;14708;50.872;5.306;2023-09-07T04:51:23;2.40;;;2.13;;
27187;SDS011;14708;50.872;5.306;2023-09-07T04:53:50;2.63;;;2.22;;
27187;SDS011;14708;50.872;5.306;2023-09-07T04:56:16;2.55;;;2.13;;
27187;SDS011;14708;50.872;5.306;2023-09-07T04:58:42;2.67;;;2.47;;
27187;SDS011;14708;50.872;5.306;2023-09-07T05:01:09;6.28;;;2.42;;
27187;SDS011;14708;50.872;5.306;2023-09-07T05:03:36;3.97;;;2.38;;
27187;SDS011;14708;50.872;5.306;2023-09-07T05:06:03;2.65;;;2.25;;
27187;SDS011;14708;50.872;5.306;2023-09-07T05:08:29;2.38;;;2.13;;
27187;SDS011;14708;50.872;5.306;2023-09-07T05:10:55;3.17;;;2.33;;
27187;SDS011;14708;50.872;5.306;2023-09-07T05:13:22;2.40;;;2.20;;
27187;SDS011;14708;50.872;5.306;2023-09-07T05:15:48;2.97;;;2.47;;
27187;SDS011;14708;50.872;5.306;2023-09-07T05:18:16;2.30;;;2.03;;
27187;SDS011;14708;50.872;5.306;2023-09-07T05:20:42;2.00;;;1.80;;
27187;SDS011;14708;50.872;5.306;2023-09-07T05:23:13;2.40;;;2.20;;
27187;SDS011;14708;50.872;5.306;2023-09-07T05:25:44;2.13;;;1.88;;
27187;SDS011;14708;50.872;5.306;2023-09-07T05:28:14;2.05;;;1.85;;
27187;SDS011;14708;50.872;5.306;2023-09-07T05:30:40;2.55;;;2.35;;
27187;SDS011;14708;50.872;5.306;2023-09-07T05:33:08;2.40;;;2.20;;
27187;SDS011;14708;50.872;5.306;2023-09-07T05:35:34;2.65;;;2.45;;
27187;SDS011;14708;50.872;5.306;2023-09-07T05:38:00;2.50;;;2.10;;
27187;SDS011;14708;50.872;5.306;2023-09-07T05:40:25;2.60;;;2.40;;
27187;SDS011;14708;50.872;5.306;2023-09-07T05:42:52;2.35;;;1.85;;
27187;SDS011;14708;50.872;5.306;2023-09-07T05:45:17;2.03;;;1.80;;
27187;SDS011;14708;50.872;5.306;2023-09-07T05:47:43;2.95;;;2.30;;
27187;SDS011;14708;50.872;5.306;2023-09-07T05:50:08;2.20;;;2.00;;
27187;SDS011;14708;50.872;5.306;2023-09-07T05:52:34;2.25;;;2.05;;
27187;SDS011;14708;50.872;5.306;2023-09-07T05:55:00;2.38;;;2.17;;
27187;SDS011;14708;50.872;5.306;2023-09-07T05:57:26;2.22;;;2.03;;
27187;SDS011;14708;50.872;5.306;2023-09-07T05:59:51;2.33;;;2.08;;
27187;SDS011;14708;50.872;5.306;2023-09-07T06:02:17;2.90;;;2.33;;
27187;SDS011;14708;50.872;5.306;2023-09-07T06:04:43;9.70;;;4.25;;
27187;SDS011;14708;50.872;5.306;2023-09-07T06:07:08;16.65;;;4.20;;
27187;SDS011;14708;50.872;5.306;2023-09-07T06:09:34;9.10;;;3.88;;
27187;SDS011;14708;50.872;5.306;2023-09-07T06:12:00;7.10;;;4.30;;
27187;SDS011;14708;50.872;5.306;2023-09-07T06:14:28;10.82;;;4.25;;
27187;SDS011;14708;50.872;5.306;2023-09-07T06:16:53;10.77;;;4.00;;
27187;SDS011;14708;50.872;5.306;2023-09-07T06:19:19;7.70;;;4.47;;
27187;SDS011;14708;50.872;5.306;2023-09-07T06:21:45;7.40;;;3.53;;
27187;SDS011;14708;50.872;5.306;2023-09-07T06:24:10;11.02;;;3.65;;
27187;SDS011;14708;50.872;5.306;2023-09-07T06:26:36;11.35;;;3.97;;
27187;SDS011;14708;50.872;5.306;2023-09-07T06:29:02;6.30;;;3.60;;
27187;SDS011;14708;50.872;5.306;2023-09-07T06:31:27;8.77;;;4.20;;
27187;SDS011;14708;50.872;5.306;2023-09-07T06:33:54;6.85;;;3.55;;
27187;SDS011;14708;50.872;5.306;2023-09-07T06:36:19;6.45;;;3.60;;
27187;SDS011;14708;50.872;5.306;2023-09-07T06:38:45;11.75;;;4.50;;
27187;SDS011;14708;50.872;5.306;2023-09-07T06:41:11;7.53;;;4.00;;
27187;SDS011;14708;50.872;5.306;2023-09-07T06:43:37;8.93;;;4.22;;
27187;SDS011;14708;50.872;5.306;2023-09-07T06:46:06;13.07;;;4.30;;
27187;SDS011;14708;50.872;5.306;2023-09-07T06:48:33;11.23;;;4.97;;
27187;SDS011;14708;50.872;5.306;2023-09-07T06:51:02;16.08;;;5.07;;
27187;SDS011;14708;50.872;5.306;2023-09-07T06:53:29;15.93;;;5.10;;
27187;SDS011;14708;50.872;5.306;2023-09-07T06:56:02;50.55;;;12.25;;
27187;SDS011;14708;50.872;5.306;2023-09-07T06:58:28;59.90;;;13.82;;
27187;SDS011;14708;50.872;5.306;2023-09-07T07:00:57;35.63;;;9.93;;
27187;SDS011;14708;50.872;5.306;2023-09-07T07:08:18;21.50;;;6.93;;
27187;SDS011;14708;50.872;5.306;2023-09-07T07:10:44;15.48;;;6.35;;
27187;SDS011;14708;50.872;5.306;2023-09-07T07:13:10;16.58;;;5.82;;
27187;SDS011;14708;50.872;5.306;2023-09-07T07:15:36;18.70;;;5.45;;
27187;SDS011;14708;50.872;5.306;2023-09-07T07:18:02;9.38;;;5.97;;
27187;SDS011;14708;50.872;5.306;2023-09-07T07:20:33;14.75;;;5.32;;
27187;SDS011;14708;50.872;5.306;2023-09-07T07:23:11;14.25;;;5.32;;
27187;SDS011;14708;50.872;5.306;2023-09-07T07:25:37;15.23;;;5.50;;
27187;SDS011;14708;50.872;5.306;2023-09-07T07:28:04;14.82;;;5.80;;
27187;SDS011;14708;50.872;5.306;2023-09-07T07:30:34;14.90;;;5.32;;
27187;SDS011;14708;50.872;5.306;2023-09-07T07:33:05;11.95;;;4.90;;
27187;SDS011;14708;50.872;5.306;2023-09-07T07:35:31;7.18;;;4.45;;
27187;SDS011;14708;50.872;5.306;2023-09-07T07:37:57;11.93;;;4.75;;
27187;SDS011;14708;50.872;5.306;2023-09-07T07:40:22;9.68;;;4.82;;
27187;SDS011;14708;50.872;5.306;2023-09-07T07:42:48;11.18;;;3.90;;
27187;SDS011;14708;50.872;5.306;2023-09-07T07:45:17;6.47;;;4.53;;
27187;SDS011;14708;50.872;5.306;2023-09-07T07:47:47;13.40;;;5.00;;
27187;SDS011;14708;50.872;5.306;2023-09-07T07:50:14;13.63;;;3.92;;
27187;SDS011;14708;50.872;5.306;2023-09-07T07:52:40;12.43;;;4.35;;
27187;SDS011;14708;50.872;5.306;2023-09-07T07:55:06;9.77;;;4.45;;
27187;SDS011;14708;50.872;5.306;2023-09-07T07:57:32;11.05;;;4.60;;
27187;SDS011;14708;50.872;5.306;2023-09-07T07:59:58;8.98;;;4.28;;
27187;SDS011;14708;50.872;5.306;2023-09-07T08:02:24;5.13;;;3.60;;
27187;SDS011;14708;50.872;5.306;2023-09-07T08:04:49;6.80;;;4.10;;
27187;SDS011;14708;50.872;5.306;2023-09-07T08:07:16;11.20;;;4.22;;
27187;SDS011;14708;50.872;5.306;2023-09-07T08:09:41;8.02;;;4.40;;
27187;SDS011;14708;50.872;5.306;2023-09-07T08:12:07;9.35;;;3.65;;
27187;SDS011;14708;50.872;5.306;2023-09-07T08:14:33;7.38;;;4.10;;
27187;SDS011;14708;50.872;5.306;2023-09-07T08:16:59;6.13;;;3.83;;
27187;SDS011;14708;50.872;5.306;2023-09-07T08:19:24;8.30;;;4.20;;
27187;SDS011;14708;50.872;5.306;2023-09-07T08:21:52;9.70;;;4.43;;
27187;SDS011;14708;50.872;5.306;2023-09-07T08:24:18;9.25;;;4.28;;
27187;SDS011;14708;50.872;5.306;2023-09-07T08:26:44;8.73;;;3.60;;
27187;SDS011;14708;50.872;5.306;2023-09-07T08:29:09;7.63;;;4.13;;
27187;SDS011;14708;50.872;5.306;2023-09-07T08:31:36;4.78;;;3.88;;
27187;SDS011;14708;50.872;5.306;2023-09-07T08:34:05;7.68;;;3.70;;
27187;SDS011;14708;50.872;5.306;2023-09-07T08:36:34;8.73;;;3.75;;
27187;SDS011;14708;50.872;5.306;2023-09-07T08:39:00;11.95;;;4.13;;
27187;SDS011;14708;50.872;5.306;2023-09-07T08:41:30;8.25;;;4.07;;
27187;SDS011;14708;50.872;5.306;2023-09-07T08:44:02;14.38;;;3.95;;
27187;SDS011;14708;50.872;5.306;2023-09-07T08:46:29;7.18;;;3.45;;
27187;SDS011;14708;50.872;5.306;2023-09-07T08:48:56;8.48;;;3.72;;
27187;SDS011;14708;50.872;5.306;2023-09-07T08:51:24;7.47;;;4.22;;
27187;SDS011;14708;50.872;5.306;2023-09-07T08:53:52;12.23;;;3.67;;
27187;SDS011;14708;50.872;5.306;2023-09-07T08:56:21;6.07;;;3.77;;
27187;SDS011;14708;50.872;5.306;2023-09-07T08:58:47;8.05;;;3.55;;
27187;SDS011;14708;50.872;5.306;2023-09-07T09:01:14;6.68;;;3.78;;
27187;SDS011;14708;50.872;5.306;2023-09-07T09:03:44;7.32;;;3.78;;
27187;SDS011;14708;50.872;5.306;2023-09-07T09:06:11;7.82;;;4.15;;
27187;SDS011;14708;50.872;5.306;2023-09-07T09:11:10;10.45;;;4.32;;
27187;SDS011;14708;50.872;5.306;2023-09-07T09:13:36;6.60;;;4.05;;
27187;SDS011;14708;50.872;5.306;2023-09-07T09:16:02;5.35;;;3.85;;
27187;SDS011;14708;50.872;5.306;2023-09-07T09:18:28;6.72;;;3.95;;
27187;SDS011;14708;50.872;5.306;2023-09-07T09:20:54;11.98;;;4.50;;
27187;SDS011;14708;50.872;5.306;2023-09-07T09:23:21;8.82;;;4.70;;
27187;SDS011;14708;50.872;5.306;2023-09-07T09:25:50;9.63;;;4.90;;
27187;SDS011;14708;50.872;5.306;2023-09-07T09:28:16;6.28;;;3.83;;
27187;SDS011;14708;50.872;5.306;2023-09-07T09:30:42;8.35;;;3.65;;
27187;SDS011;14708;50.872;5.306;2023-09-07T09:33:10;4.77;;;3.40;;
27187;SDS011;14708;50.872;5.306;2023-09-07T09:35:37;8.68;;;3.97;;
27187;SDS011;14708;50.872;5.306;2023-09-07T09:38:03;7.45;;;3.72;;
27187;SDS011;14708;50.872;5.306;2023-09-07T09:40:30;5.88;;;3.80;;
27187;SDS011;14708;50.872;5.306;2023-09-07T09:42:56;6.00;;;3.63;;
27187;SDS011;14708;50.872;5.306;2023-09-07T09:45:24;18.77;;;4.05;;
27187;SDS011;14708;50.872;5.306;2023-09-07T09:47:52;6.27;;;3.73;;
27187;SDS011;14708;50.872;5.306;2023-09-07T09:50:21;9.18;;;3.85;;
27187;SDS011;14708;50.872;5.306;2023-09-07T09:52:48;9.05;;;3.90;;
27187;SDS011;14708;50.872;5.306;2023-09-07T09:55:13;7.80;;;4.03;;
27187;SDS011;14708;50.872;5.306;2023-09-07T09:57:40;6.60;;;3.85;;
27187;SDS011;14708;50.872;5.306;2023-09-07T10:00:06;5.90;;;3.58;;
27187;SDS011;14708;50.872;5.306;2023-09-07T10:02:42;9.13;;;3.65;;
27187;SDS011;14708;50.872;5.306;2023-09-07T10:05:30;6.57;;;3.90;;
27187;SDS011;14708;50.872;5.306;2023-09-07T10:08:00;10.02;;;3.95;;
27187;SDS011;14708;50.872;5.306;2023-09-07T10:10:32;9.70;;;3.72;;
27187;SDS011;14708;50.872;5.306;2023-09-07T10:13:02;8.18;;;3.67;;
27187;SDS011;14708;50.872;5.306;2023-09-07T10:15:29;8.23;;;4.03;;
27187;SDS011;14708;50.872;5.306;2023-09-07T10:18:12;5.93;;;3.60;;
27187;SDS011;14708;50.872;5.306;2023-09-07T10:20:55;6.10;;;3.85;;
27187;SDS011;14708;50.872;5.306;2023-09-07T10:23:23;5.10;;;4.05;;
27187;SDS011;14708;50.872;5.306;2023-09-07T10:25:59;6.20;;;3.75;;
27187;SDS011;14708;50.872;5.306;2023-09-07T10:28:25;6.75;;;3.33;;
27187;SDS011;14708;50.872;5.306;2023-09-07T10:31:01;4.78;;;3.53;;
27187;SDS011;14708;50.872;5.306;2023-09-07T10:33:28;6.43;;;3.53;;
27187;SDS011;14708;50.872;5.306;2023-09-07T10:35:55;6.93;;;3.78;;
27187;SDS011;14708;50.872;5.306;2023-09-07T10:38:22;9.55;;;4.78;;
27187;SDS011;14708;50.872;5.306;2023-09-07T10:40:48;16.23;;;5.13;;
27187;SDS011;14708;50.872;5.306;2023-09-07T10:43:19;13.85;;;6.32;;
27187;SDS011;14708;50.872;5.306;2023-09-07T10:45:45;21.88;;;9.93;;
27187;SDS011;14708;50.872;5.306;2023-09-07T10:48:11;29.88;;;10.52;;
27187;SDS011;14708;50.872;5.306;2023-09-07T10:50:44;28.00;;;9.98;;
27187;SDS011;14708;50.872;5.306;2023-09-07T10:53:11;26.65;;;9.25;;
27187;SDS011;14708;50.872;5.306;2023-09-07T10:55:38;28.70;;;10.85;;
27187;SDS011;14708;50.872;5.306;2023-09-07T10:58:05;23.10;;;8.80;;
27187;SDS011;14708;50.872;5.306;2023-09-07T11:00:31;19.88;;;7.93;;
27187;SDS011;14708;50.872;5.306;2023-09-07T11:02:57;19.50;;;8.02;;
27187;SDS011;14708;50.872;5.306;2023-09-07T11:05:22;21.75;;;8.25;;
27187;SDS011;14708;50.872;5.306;2023-09-07T11:07:49;17.02;;;8.45;;
27187;SDS011;14708;50.872;5.306;2023-09-07T11:10:15;16.80;;;8.68;;
27187;SDS011;14708;50.872;5.306;2023-09-07T11:12:40;14.85;;;6.95;;
27187;SDS011;14708;50.872;5.306;2023-09-07T11:15:09;18.95;;;7.13;;
27187;SDS011;14708;50.872;5.306;2023-09-07T11:22:31;16.73;;;6.70;;
27187;SDS011;14708;50.872;5.306;2023-09-07T11:24:59;14.73;;;6.75;;
27187;SDS011;14708;50.872;5.306;2023-09-07T11:27:39;17.13;;;6.25;;
27187;SDS011;14708;50.872;5.306;2023-09-07T11:30:05;16.35;;;6.15;;
27187;SDS011;14708;50.872;5.306;2023-09-07T11:32:36;10.32;;;6.47;;
27187;SDS011;14708;50.872;5.306;2023-09-07T11:35:03;14.65;;;6.25;;
27187;SDS011;14708;50.872;5.306;2023-09-07T11:37:32;10.43;;;5.97;;
27187;SDS011;14708;50.872;5.306;2023-09-07T11:39:59;13.95;;;5.45;;
27187;SDS011;14708;50.872;5.306;2023-09-07T11:42:25;10.30;;;5.53;;
27187;SDS011;14708;50.872;5.306;2023-09-07T11:44:51;10.65;;;5.45;;
27187;SDS011;14708;50.872;5.306;2023-09-07T11:47:17;9.43;;;5.95;;
27187;SDS011;14708;50.872;5.306;2023-09-07T11:49:42;12.55;;;5.15;;
27187;SDS011;14708;50.872;5.306;2023-09-07T11:52:08;9.93;;;5.70;;
27187;SDS011;14708;50.872;5.306;2023-09-07T11:54:34;7.07;;;5.00;;
27187;SDS011;14708;50.872;5.306;2023-09-07T11:56:59;10.02;;;5.28;;
27187;SDS011;14708;50.872;5.306;2023-09-07T11:59:25;9.40;;;4.90;;
27187;SDS011;14708;50.872;5.306;2023-09-07T12:01:50;11.20;;;5.05;;
27187;SDS011;14708;50.872;5.306;2023-09-07T12:04:16;11.18;;;5.50;;
27187;SDS011;14708;50.872;5.306;2023-09-07T12:06:42;9.77;;;5.32;;
27187;SDS011;14708;50.872;5.306;2023-09-07T12:09:08;8.32;;;4.97;;
27187;SDS011;14708;50.872;5.306;2023-09-07T12:11:36;11.27;;;5.07;;
27187;SDS011;14708;50.872;5.306;2023-09-07T12:14:02;14.25;;;4.72;;
27187;SDS011;14708;50.872;5.306;2023-09-07T12:16:28;7.15;;;4.25;;
27187;SDS011;14708;50.872;5.306;2023-09-07T12:18:54;8.75;;;4.20;;
27187;SDS011;14708;50.872;5.306;2023-09-07T12:21:20;7.03;;;4.40;;
27187;SDS011;14708;50.872;5.306;2023-09-07T12:23:46;9.05;;;4.78;;
27187;SDS011;14708;50.872;5.306;2023-09-07T12:26:12;9.30;;;4.88;;
27187;SDS011;14708;50.872;5.306;2023-09-07T12:28:39;9.10;;;4.10;;
27187;SDS011;14708;50.872;5.306;2023-09-07T12:31:05;6.70;;;4.20;;
27187;SDS011;14708;50.872;5.306;2023-09-07T12:33:30;9.63;;;4.20;;
27187;SDS011;14708;50.872;5.306;2023-09-07T12:35:57;6.88;;;4.03;;
27187;SDS011;14708;50.872;5.306;2023-09-07T12:38:23;5.40;;;3.67;;
27187;SDS011;14708;50.872;5.306;2023-09-07T12:40:53;6.70;;;3.78;;
27187;SDS011;14708;50.872;5.306;2023-09-07T12:43:19;6.80;;;4.18;;
27187;SDS011;14708;50.872;5.306;2023-09-07T12:45:45;10.50;;;4.43;;
27187;SDS011;14708;50.872;5.306;2023-09-07T12:48:11;10.75;;;4.78;;
27187;SDS011;14708;50.872;5.306;2023-09-07T12:50:36;8.88;;;4.03;;
27187;SDS011;14708;50.872;5.306;2023-09-07T12:53:02;5.78;;;3.63;;
27187;SDS011;14708;50.872;5.306;2023-09-07T12:55:28;11.98;;;4.57;;
27187;SDS011;14708;50.872;5.306;2023-09-07T12:57:55;5.65;;;3.67;;
27187;SDS011;14708;50.872;5.306;2023-09-07T13:00:20;6.63;;;3.97;;
27187;SDS011;14708;50.872;5.306;2023-09-07T13:02:46;5.40;;;3.50;;
27187;SDS011;14708;50.872;5.306;2023-09-07T13:05:12;7.15;;;3.47;;
27187;SDS011;14708;50.872;5.306;2023-09-07T13:07:37;7.00;;;4.22;;
27187;SDS011;14708;50.872;5.306;2023-09-07T13:10:04;7.18;;;3.80;;
27187;SDS011;14708;50.872;5.306;2023-09-07T13:12:31;6.10;;;3.88;;
27187;SDS011;14708;50.872;5.306;2023-09-07T13:14:57;7.35;;;4.40;;
27187;SDS011;14708;50.872;5.306;2023-09-07T13:17:22;5.18;;;3.33;;
27187;SDS011;14708;50.872;5.306;2023-09-07T13:19:48;5.93;;;3.72;;
27187;SDS011;14708;50.872;5.306;2023-09-07T13:22:14;6.80;;;3.55;;
27187;SDS011;14708;50.872;5.306;2023-09-07T13:24:39;7.75;;;3.55;;
27187;SDS011;14708;50.872;5.306;2023-09-07T13:27:05;5.00;;;3.63;;
27187;SDS011;14708;50.872;5.306;2023-09-07T13:29:31;6.50;;;4.15;;
27187;SDS011;14708;50.872;5.306;2023-09-07T13:31:58;6.50;;;3.20;;
27187;SDS011;14708;50.872;5.306;2023-09-07T13:34:24;6.28;;;3.80;;
27187;SDS011;14708;50.872;5.306;2023-09-07T13:36:50;8.57;;;4.10;;
27187;SDS011;14708;50.872;5.306;2023-09-07T13:39:16;5.28;;;3.33;;
27187;SDS011;14708;50.872;5.306;2023-09-07T13:41:41;5.28;;;3.70;;
27187;SDS011;14708;50.872;5.306;2023-09-07T13:44:07;6.78;;;3.40;;
27187;SDS011;14708;50.872;5.306;2023-09-07T13:46:33;6.93;;;3.38;;
27187;SDS011;14708;50.872;5.306;2023-09-07T13:48:59;4.80;;;3.30;;
27187;SDS011;14708;50.872;5.306;2023-09-07T13:51:25;6.88;;;3.42;;
27187;SDS011;14708;50.872;5.306;2023-09-07T13:53:51;5.40;;;3.35;;
27187;SDS011;14708;50.872;5.306;2023-09-07T13:56:19;6.47;;;3.80;;
27187;SDS011;14708;50.872;5.306;2023-09-07T13:58:45;6.20;;;3.37;;
27187;SDS011;14708;50.872;5.306;2023-09-07T14:01:11;9.15;;;5.03;;
27187;SDS011;14708;50.872;5.306;2023-09-07T14:03:37;14.13;;;6.00;;
27187;SDS011;14708;50.872;5.306;2023-09-07T14:06:02;18.98;;;7.57;;
27187;SDS011;14708;50.872;5.306;2023-09-07T14:08:28;21.75;;;7.70;;
27187;SDS011;14708;50.872;5.306;2023-09-07T14:10:55;22.02;;;8.75;;
27187;SDS011;14708;50.872;5.306;2023-09-07T14:13:21;23.45;;;8.73;;
27187;SDS011;14708;50.872;5.306;2023-09-07T14:15:46;23.33;;;8.70;;
27187;SDS011;14708;50.872;5.306;2023-09-07T14:18:12;27.13;;;8.20;;
27187;SDS011;14708;50.872;5.306;2023-09-07T14:20:38;17.38;;;6.78;;
27187;SDS011;14708;50.872;5.306;2023-09-07T14:23:03;19.50;;;7.43;;
27187;SDS011;14708;50.872;5.306;2023-09-07T14:25:29;16.02;;;6.95;;
27187;SDS011;14708;50.872;5.306;2023-09-07T14:27:55;17.67;;;7.20;;
27187;SDS011;14708;50.872;5.306;2023-09-07T14:30:21;14.32;;;6.75;;
27187;SDS011;14708;50.872;5.306;2023-09-07T14:32:46;14.82;;;6.65;;
27187;SDS011;14708;50.872;5.306;2023-09-07T14:35:13;18.45;;;7.32;;
27187;SDS011;14708;50.872;5.306;2023-09-07T14:37:40;14.35;;;6.07;;
27187;SDS011;14708;50.872;5.306;2023-09-07T14:40:06;15.88;;;5.65;;
27187;SDS011;14708;50.872;5.306;2023-09-07T14:42:33;13.25;;;5.75;;
27187;SDS011;14708;50.872;5.306;2023-09-07T14:44:59;12.95;;;5.25;;
27187;SDS011;14708;50.872;5.306;2023-09-07T14:47:28;11.18;;;4.85;;
27187;SDS011;14708;50.872;5.306;2023-09-07T14:49:54;11.32;;;5.50;;
27187;SDS011;14708;50.872;5.306;2023-09-07T14:52:19;12.30;;;5.35;;